Time;durP1;ratioP1;P1;durP2;ratioP2;P2;SDS_P1;SDS_P2;PMS_P1;PMS_P2;Temp;Humidity;BMP_temperature;BMP_pressure;BME280_temperature;BME280_humidity;BME280_pressure;Samples;Min_cycle;Max_cycle;Signal;HPM_P1;HPM_P2
2023/12/12 00:00:17;;;;;;;;;;;;;;;6.40;69.40;99368.94;4423819;32;34986;-74
2023/12/12 00:02:44;;;;;;;;;;;;;;;6.40;69.33;99372.41;4437142;32;34841;-74
2023/12/12 00:05:13;;;;;;;;;;;;;;;6.42;68.96;99365.66;4432255;32;35062;-74
2023/12/12 00:07:40;;;;;;;;;;;;;;;6.27;69.61;99367.38;4433580;32;33674;-74
2023/12/12 00:10:08;;;;;;;;;;;;;;;6.15;70.12;99365.03;4424919;32;33343;-74
2023/12/12 00:12:35;;;;;;;;;;;;;;;6.14;70.12;99362.38;4427721;32;34082;-73
2023/12/12 00:15:05;;;;;;;;;;;;;;;6.14;70.21;99364.94;4424338;32;34812;-74
2023/12/12 00:17:33;;;;;;;;;;;;;;;6.24;70.26;99377.53;4426796;32;34207;-74
2023/12/12 00:20:01;;;;;;;;;;;;;;;6.47;69.46;99382.22;4432084;32;33923;-74
2023/12/12 00:22:29;;;;;;;;;;;;;;;6.52;68.90;99400.47;4426182;32;33852;-73
2023/12/12 00:24:56;;;;;;;;;;;;;;;6.60;68.25;99390.59;4423885;32;34463;-73
2023/12/12 00:27:24;;;;;;;;;;;;;;;6.46;68.61;99395.00;4425685;32;33554;-74
2023/12/12 00:29:51;;;;;;;;;;;;;;;6.31;69.15;99389.91;4429168;32;34720;-73
2023/12/12 00:32:18;;;;;;;;;;;;;;;6.49;68.74;99406.34;4428299;32;35066;-74
2023/12/12 00:34:46;;;;;;;;;;;;;;;6.30;69.06;99404.47;4430716;32;34320;-73
2023/12/12 00:37:13;;;;;;;;;;;;;;;6.24;69.72;99398.09;4429413;32;33405;-74
2023/12/12 00:39:40;;;;;;;;;;;;;;;6.21;69.76;99392.78;4428238;32;34336;-74
2023/12/12 00:42:08;;;;;;;;;;;;;;;6.14;69.83;99396.69;4431019;32;35343;-73
2023/12/12 00:44:35;;;;;;;;;;;;;;;6.27;69.89;99385.41;4422073;32;34414;-73
2023/12/12 00:47:04;;;;;;;;;;;;;;;6.12;69.99;99381.97;4429322;32;33560;-74
2023/12/12 00:49:32;;;;;;;;;;;;;;;6.28;69.57;99389.75;4427446;32;33476;-73
2023/12/12 00:51:59;;;;;;;;;;;;;;;6.33;69.58;99393.44;4422621;32;33887;-73
2023/12/12 00:54:27;;;;;;;;;;;;;;;6.39;69.54;99392.91;4432679;32;34037;-74
2023/12/12 00:56:54;;;;;;;;;;;;;;;6.33;69.42;99392.56;4428883;32;33359;-73
2023/12/12 00:59:21;;;;;;;;;;;;;;;6.37;69.10;99391.94;4417859;32;33983;-74
2023/12/12 01:01:49;;;;;;;;;;;;;;;6.43;68.67;99385.44;4427571;32;33880;-74
2023/12/12 01:04:16;;;;;;;;;;;;;;;6.52;67.86;99392.75;4432478;32;34227;-74
2023/12/12 01:06:44;;;;;;;;;;;;;;;6.40;67.43;99394.69;4422042;32;33677;-73
2023/12/12 01:09:11;;;;;;;;;;;;;;;6.00;68.79;99402.75;4416852;32;34312;-73
2023/12/12 01:11:38;;;;;;;;;;;;;;;6.00;68.67;99403.62;4433084;32;35053;-73
2023/12/12 01:14:06;;;;;;;;;;;;;;;5.77;69.48;99393.69;4416500;32;33645;-74
2023/12/12 01:16:33;;;;;;;;;;;;;;;5.69;70.38;99396.69;4417455;32;33458;-73
2023/12/12 01:19:00;;;;;;;;;;;;;;;5.67;70.50;99398.31;4432696;32;34169;-74
2023/12/12 01:21:28;;;;;;;;;;;;;;;5.64;70.33;99405.84;4425253;32;34400;-73
2023/12/12 01:23:55;;;;;;;;;;;;;;;5.58;70.77;99402.94;4424345;32;35114;-73
2023/12/12 01:26:23;;;;;;;;;;;;;;;5.68;70.75;99394.94;4432316;32;33358;-74
2023/12/12 01:28:50;;;;;;;;;;;;;;;5.77;70.68;99403.97;4420916;32;34243;-73
2023/12/12 01:31:18;;;;;;;;;;;;;;;5.71;70.68;99395.09;4428869;32;33869;-73
2023/12/12 01:33:46;;;;;;;;;;;;;;;5.84;70.78;99406.09;4438769;32;35099;-74
2023/12/12 01:36:14;;;;;;;;;;;;;;;5.90;70.35;99396.16;4442851;32;33539;-74
2023/12/12 01:38:41;;;;;;;;;;;;;;;6.10;69.56;99395.66;4434420;32;34852;-73
2023/12/12 01:41:08;;;;;;;;;;;;;;;6.17;69.39;99396.00;4428781;32;34795;-74
2023/12/12 01:43:36;;;;;;;;;;;;;;;6.21;69.11;99396.22;4444853;32;35010;-73
2023/12/12 01:46:05;;;;;;;;;;;;;;;6.14;69.28;99386.38;4444499;32;33775;-73
2023/12/12 01:48:32;;;;;;;;;;;;;;;6.00;69.60;99377.91;4416501;32;34797;-74
2023/12/12 01:51:00;;;;;;;;;;;;;;;5.95;70.60;99393.84;4425946;32;34987;-74
2023/12/12 01:53:28;;;;;;;;;;;;;;;6.08;70.15;99386.97;4432657;32;34320;-74
2023/12/12 01:55:55;;;;;;;;;;;;;;;6.12;69.85;99382.84;4424423;32;34154;-73
2023/12/12 01:58:24;;;;;;;;;;;;;;;6.17;69.83;99381.44;4426133;32;33920;-74
2023/12/12 02:00:53;;;;;;;;;;;;;;;6.23;69.73;99381.75;4432686;32;34293;-73
2023/12/12 02:03:21;;;;;;;;;;;;;;;6.29;69.21;99381.22;4433210;32;34532;-74
2023/12/12 02:05:48;;;;;;;;;;;;;;;6.30;69.40;99386.44;4413532;32;33351;-74
2023/12/12 02:08:16;;;;;;;;;;;;;;;6.18;69.83;99387.44;4427716;32;34480;-73
2023/12/12 02:10:44;;;;;;;;;;;;;;;6.09;70.38;99388.72;4434690;32;33949;-73
2023/12/12 02:13:11;;;;;;;;;;;;;;;6.17;70.44;99390.84;4429259;32;34130;-74
2023/12/12 02:15:39;;;;;;;;;;;;;;;6.13;70.77;99383.75;4419560;32;34368;-73
2023/12/12 02:18:06;;;;;;;;;;;;;;;6.11;70.81;99391.37;4427305;32;34633;-73
2023/12/12 02:20:33;;;;;;;;;;;;;;;6.22;70.82;99384.25;4429144;32;34228;-74
2023/12/12 02:23:01;;;;;;;;;;;;;;;6.41;70.13;99381.91;4433474;32;35020;-74
2023/12/12 02:25:28;;;;;;;;;;;;;;;6.40;70.32;99384.37;4429979;32;33702;-74
2023/12/12 02:27:55;;;;;;;;;;;;;;;6.36;70.41;99383.34;4421956;32;34782;-73
2023/12/12 02:30:23;;;;;;;;;;;;;;;6.36;70.57;99378.19;4417918;32;34749;-74
2023/12/12 02:32:50;;;;;;;;;;;;;;;6.61;69.71;99384.66;4427371;32;34466;-74
2023/12/12 02:35:17;;;;;;;;;;;;;;;6.65;68.83;99381.44;4428583;32;33515;-74
2023/12/12 02:37:45;;;;;;;;;;;;;;;6.35;69.99;99384.13;4429495;32;34237;-74
2023/12/12 02:40:12;;;;;;;;;;;;;;;6.34;70.21;99379.78;4426140;32;34805;-74
2023/12/12 02:42:43;;;;;;;;;;;;;;;6.20;71.03;99383.28;4417125;32;34076;-74
2023/12/12 02:45:11;;;;;;;;;;;;;;;6.48;70.12;99372.81;4436765;32;32533;-75
2023/12/12 02:47:39;;;;;;;;;;;;;;;6.23;71.17;99384.34;4429826;32;34140;-74
2023/12/12 02:50:06;;;;;;;;;;;;;;;6.20;71.02;99375.56;4432404;32;34712;-74
2023/12/12 02:52:34;;;;;;;;;;;;;;;6.26;71.06;99381.06;4435170;32;34363;-74
2023/12/12 02:55:02;;;;;;;;;;;;;;;6.36;70.66;99378.19;4434950;32;34224;-75
2023/12/12 02:57:31;;;;;;;;;;;;;;;5.85;72.41;99377.03;4417370;32;35496;-74
2023/12/12 02:59:58;;;;;;;;;;;;;;;5.96;72.38;99375.97;4425765;32;34043;-74
2023/12/12 03:02:26;;;;;;;;;;;;;;;6.03;72.66;99393.53;4428104;32;34411;-75
2023/12/12 03:04:54;;;;;;;;;;;;;;;6.05;72.54;99396.19;4429376;32;33402;-75
2023/12/12 03:07:21;;;;;;;;;;;;;;;6.12;72.39;99387.12;4431513;32;33907;-74
2023/12/12 03:09:49;;;;;;;;;;;;;;;6.28;72.05;99389.75;4426399;32;34111;-75
2023/12/12 03:12:17;;;;;;;;;;;;;;;6.04;73.43;99405.56;4433086;32;34626;-75
2023/12/12 03:14:44;;;;;;;;;;;;;;;6.27;72.59;99408.53;4411323;32;33589;-74
2023/12/12 03:17:11;;;;;;;;;;;;;;;6.27;72.32;99411.12;4424205;32;33825;-74
2023/12/12 03:19:39;;;;;;;;;;;;;;;6.48;70.83;99401.13;4434275;32;34408;-75
2023/12/12 03:22:06;;;;;;;;;;;;;;;6.48;70.09;99404.56;4430487;32;33969;-74
2023/12/12 03:24:33;;;;;;;;;;;;;;;6.35;70.56;99407.28;4427711;32;33742;-74
2023/12/12 03:27:01;;;;;;;;;;;;;;;6.15;71.44;99410.44;4421335;32;33882;-75
2023/12/12 03:29:28;;;;;;;;;;;;;;;6.43;70.18;99413.75;4421428;32;33530;-74
2023/12/12 03:31:59;;;;;;;;;;;;;;;6.36;70.57;99413.31;4425834;32;34077;-74
2023/12/12 03:34:26;;;;;;;;;;;;;;;6.42;70.37;99416.22;4426370;32;33345;-74
2023/12/12 03:36:53;;;;;;;;;;;;;;;6.33;70.61;99418.28;4431454;32;34105;-75
2023/12/12 03:39:21;;;;;;;;;;;;;;;6.39;70.62;99414.34;4424105;32;35013;-74
2023/12/12 03:41:48;;;;;;;;;;;;;;;6.28;70.94;99426.62;4424070;32;35066;-74
2023/12/12 03:44:16;;;;;;;;;;;;;;;6.52;70.48;99436.50;4436093;32;33405;-74
2023/12/12 03:46:44;;;;;;;;;;;;;;;6.68;69.71;99427.94;4423937;32;32981;-75
2023/12/12 03:49:11;;;;;;;;;;;;;;;6.56;70.04;99422.13;4431630;32;34217;-74
2023/12/12 03:51:38;;;;;;;;;;;;;;;6.49;70.26;99432.09;4425965;32;34605;-74
2023/12/12 03:54:06;;;;;;;;;;;;;;;6.35;70.69;99438.13;4431604;32;32293;-74
2023/12/12 03:56:33;;;;;;;;;;;;;;;6.55;70.09;99430.63;4430937;32;34721;-75
2023/12/12 03:59:00;;;;;;;;;;;;;;;6.48;70.12;99435.44;4436146;32;34337;-75
2023/12/12 04:01:28;;;;;;;;;;;;;;;6.49;69.49;99426.94;4416801;32;33477;-74
2023/12/12 04:03:56;;;;;;;;;;;;;;;6.57;68.61;99432.50;4429708;32;33671;-74
2023/12/12 04:06:23;;;;;;;;;;;;;;;6.43;69.31;99436.00;4424315;32;32863;-74
2023/12/12 04:08:50;;;;;;;;;;;;;;;6.46;68.92;99437.06;4428204;32;34054;-74
2023/12/12 04:11:18;;;;;;;;;;;;;;;6.37;69.56;99446.81;4418038;32;32578;-74
2023/12/12 04:13:45;;;;;;;;;;;;;;;6.55;68.93;99435.78;4411952;32;31952;-74
2023/12/12 04:16:12;;;;;;;;;;;;;;;6.38;69.44;99438.31;4419326;32;34723;-75
2023/12/12 04:18:40;;;;;;;;;;;;;;;6.61;69.09;99436.13;4418348;32;34165;-75
2023/12/12 04:21:07;;;;;;;;;;;;;;;6.54;69.37;99434.91;4429895;32;34368;-74
2023/12/12 04:23:38;;;;;;;;;;;;;;;6.40;69.57;99435.84;4426546;32;33560;-75
2023/12/12 04:26:06;;;;;;;;;;;;;;;6.42;70.04;99437.69;4430092;32;33054;-74
2023/12/12 04:28:33;;;;;;;;;;;;;;;6.41;70.08;99438.50;4420310;32;34040;-74
2023/12/12 04:31:01;;;;;;;;;;;;;;;6.41;69.88;99433.38;4431340;32;33962;-74
2023/12/12 04:33:28;;;;;;;;;;;;;;;6.01;70.73;99446.56;4433256;32;31948;-74
2023/12/12 04:35:55;;;;;;;;;;;;;;;6.09;69.69;99445.28;4422181;32;33607;-73
2023/12/12 04:38:23;;;;;;;;;;;;;;;6.37;69.17;99451.97;4433688;32;33960;-75
2023/12/12 04:40:50;;;;;;;;;;;;;;;6.23;69.27;99453.78;4423925;32;34323;-74
2023/12/12 04:43:17;;;;;;;;;;;;;;;5.78;71.28;99452.03;4422197;32;33402;-74
2023/12/12 04:45:44;;;;;;;;;;;;;;;5.80;71.55;99460.72;4426022;32;33955;-74
2023/12/12 04:48:12;;;;;;;;;;;;;;;5.51;73.57;99457.31;4432125;32;34211;-74
2023/12/12 04:50:39;;;;;;;;;;;;;;;5.58;73.59;99448.28;4435164;32;35188;-74
2023/12/12 04:53:06;;;;;;;;;;;;;;;5.61;73.37;99449.34;4430738;32;33197;-75
2023/12/12 04:55:34;;;;;;;;;;;;;;;5.63;73.36;99441.72;4427490;32;34214;-74
2023/12/12 04:58:02;;;;;;;;;;;;;;;5.80;72.70;99420.47;4424003;32;34080;-74
2023/12/12 05:00:30;;;;;;;;;;;;;;;5.86;73.13;99440.50;4425865;32;33972;-75
2023/12/12 05:02:57;;;;;;;;;;;;;;;5.79;73.05;99464.94;4420352;32;33490;-73
2023/12/12 05:05:25;;;;;;;;;;;;;;;5.97;72.81;99449.75;4425703;32;34260;-74
2023/12/12 05:07:52;;;;;;;;;;;;;;;6.09;72.34;99450.44;4423525;32;34922;-74
2023/12/12 05:10:20;;;;;;;;;;;;;;;6.10;72.20;99462.50;4433108;32;34324;-74
2023/12/12 05:12:47;;;;;;;;;;;;;;;6.20;72.05;99457.84;4432773;32;33165;-74
2023/12/12 05:15:15;;;;;;;;;;;;;;;6.15;72.25;99456.72;4429937;32;34257;-75
2023/12/12 05:17:42;;;;;;;;;;;;;;;6.40;71.59;99465.03;4424275;32;34837;-75
2023/12/12 05:20:11;;;;;;;;;;;;;;;6.23;71.57;99464.06;4426459;32;34323;-74
2023/12/12 05:22:39;;;;;;;;;;;;;;;6.22;71.78;99462.31;4426409;32;33586;-74
2023/12/12 05:25:07;;;;;;;;;;;;;;;6.37;71.58;99462.25;4419483;32;34786;-74
2023/12/12 05:27:35;;;;;;;;;;;;;;;6.13;71.82;99466.06;4429114;32;34865;-74
2023/12/12 05:30:02;;;;;;;;;;;;;;;6.20;71.64;99465.56;4433921;32;33771;-74
2023/12/12 05:32:29;;;;;;;;;;;;;;;6.04;71.76;99474.09;4428584;32;36045;-74
2023/12/12 05:34:57;;;;;;;;;;;;;;;6.18;71.49;99465.50;4431158;32;33711;-75
2023/12/12 05:37:24;;;;;;;;;;;;;;;6.20;71.70;99468.16;4433589;32;34154;-74
2023/12/12 05:39:51;;;;;;;;;;;;;;;6.32;71.78;99473.09;4435947;32;34455;-74
2023/12/12 05:42:19;;;;;;;;;;;;;;;6.44;71.40;99474.69;4427901;32;33576;-74
2023/12/12 05:44:46;;;;;;;;;;;;;;;6.45;71.34;99476.47;4436173;32;34407;-74
2023/12/12 05:47:13;;;;;;;;;;;;;;;6.35;71.43;99489.59;4428899;32;34818;-74
2023/12/12 05:49:41;;;;;;;;;;;;;;;6.30;71.59;99476.47;4435106;32;34551;-74
2023/12/12 05:52:08;;;;;;;;;;;;;;;6.13;72.00;99474.66;4425681;32;33654;-75
2023/12/12 05:54:36;;;;;;;;;;;;;;;6.34;71.25;99485.25;4430070;32;33861;-75
2023/12/12 05:57:03;;;;;;;;;;;;;;;6.45;71.25;99491.91;4433823;32;34880;-74
2023/12/12 05:59:31;;;;;;;;;;;;;;;6.21;72.13;99496.53;4423896;32;35074;-74
2023/12/12 06:02:00;;;;;;;;;;;;;;;6.49;71.71;99493.84;4427726;32;33531;-75
2023/12/12 06:04:28;;;;;;;;;;;;;;;6.58;71.68;99500.28;4423585;32;35623;-75
2023/12/12 06:06:55;;;;;;;;;;;;;;;6.61;71.81;99492.75;4431188;32;34218;-74
2023/12/12 06:09:22;;;;;;;;;;;;;;;6.82;71.32;99493.94;4428116;32;35151;-75
2023/12/12 06:11:50;;;;;;;;;;;;;;;6.77;71.50;99500.50;4420766;32;32144;-74
2023/12/12 06:14:17;;;;;;;;;;;;;;;6.79;71.62;99492.88;4427188;32;34847;-74
2023/12/12 06:16:44;;;;;;;;;;;;;;;6.93;71.58;99501.34;4431850;32;34044;-75
2023/12/12 06:19:12;;;;;;;;;;;;;;;6.89;71.18;99510.59;4426921;32;34694;-74
2023/12/12 06:21:39;;;;;;;;;;;;;;;7.18;68.92;99513.84;4432563;32;33784;-74
2023/12/12 06:24:07;;;;;;;;;;;;;;;7.22;67.65;99516.69;4428437;32;34147;-74
2023/12/12 06:26:37;;;;;;;;;;;;;;;6.92;69.11;99525.34;4421505;32;34135;-74
2023/12/12 06:29:07;;;;;;;;;;;;;;;6.64;70.11;99528.94;4426716;32;34433;-74
2023/12/12 06:31:35;;;;;;;;;;;;;;;6.77;70.57;99528.81;4428664;32;33497;-75
2023/12/12 06:34:03;;;;;;;;;;;;;;;6.98;70.54;99523.09;4432059;32;34150;-74
2023/12/12 06:36:30;;;;;;;;;;;;;;;7.20;70.01;99520.84;4428952;32;34239;-75
2023/12/12 06:38:58;;;;;;;;;;;;;;;7.02;70.88;99519.88;4421577;32;34434;-75
2023/12/12 06:41:25;;;;;;;;;;;;;;;7.14;70.51;99525.69;4421263;32;33425;-75
2023/12/12 06:43:52;;;;;;;;;;;;;;;7.13;69.83;99531.66;4428518;32;34830;-75
2023/12/12 06:46:20;;;;;;;;;;;;;;;7.13;69.83;99529.06;4427180;32;34880;-75
2023/12/12 06:48:47;;;;;;;;;;;;;;;7.15;70.18;99519.72;4429846;32;34653;-74
2023/12/12 06:51:15;;;;;;;;;;;;;;;7.29;69.59;99529.06;4437456;32;33599;-75
2023/12/12 06:53:42;;;;;;;;;;;;;;;7.18;69.80;99540.50;4429703;32;34818;-74
2023/12/12 06:56:10;;;;;;;;;;;;;;;7.44;69.07;99543.59;4435475;32;34128;-74
2023/12/12 06:58:38;;;;;;;;;;;;;;;7.31;69.59;99546.31;4434251;32;34540;-75
2023/12/12 07:01:05;;;;;;;;;;;;;;;7.38;69.64;99540.66;4426869;32;33646;-75
2023/12/12 07:03:33;;;;;;;;;;;;;;;7.43;69.76;99549.53;4421827;32;33910;-75
2023/12/12 07:06:02;;;;;;;;;;;;;;;7.24;69.57;99551.16;4424747;32;33590;-75
2023/12/12 07:08:30;;;;;;;;;;;;;;;7.44;68.91;99548.75;4432330;32;35122;-75
2023/12/12 07:10:57;;;;;;;;;;;;;;;7.36;68.88;99547.44;4422010;32;33329;-74
2023/12/12 07:13:25;;;;;;;;;;;;;;;7.39;68.86;99550.19;4430656;32;33954;-74
2023/12/12 07:15:53;;;;;;;;;;;;;;;7.50;68.82;99556.78;4427512;32;34174;-75
2023/12/12 07:18:21;;;;;;;;;;;;;;;7.45;68.68;99555.66;4421379;32;35055;-75
2023/12/12 07:20:48;;;;;;;;;;;;;;;7.59;68.41;99557.28;4431464;32;32397;-75
2023/12/12 07:23:15;;;;;;;;;;;;;;;7.66;67.99;99561.06;4413368;32;33362;-75
2023/12/12 07:25:46;;;;;;;;;;;;;;;7.74;67.75;99558.87;4416127;32;33453;-74
2023/12/12 07:28:14;;;;;;;;;;;;;;;7.75;67.52;99555.50;4423512;32;34567;-74
2023/12/12 07:30:42;;;;;;;;;;;;;;;7.00;70.65;99548.12;4428898;32;33582;-74
2023/12/12 07:33:09;;;;;;;;;;;;;;;6.84;71.26;99559.25;4432235;32;34126;-74
2023/12/12 07:35:37;;;;;;;;;;;;;;;6.96;71.42;99561.63;4419546;32;34627;-74
2023/12/12 07:38:04;;;;;;;;;;;;;;;7.17;71.21;99569.66;4423000;32;34437;-74
2023/12/12 07:40:31;;;;;;;;;;;;;;;7.55;70.53;99572.50;4425285;32;33762;-74
2023/12/12 07:42:59;;;;;;;;;;;;;;;7.04;72.27;99578.38;4413266;32;33422;-75
2023/12/12 07:45:26;;;;;;;;;;;;;;;7.60;71.15;99571.06;4431089;32;34202;-74
2023/12/12 07:47:53;;;;;;;;;;;;;;;7.17;72.81;99573.91;4428091;32;34275;-75
2023/12/12 07:50:21;;;;;;;;;;;;;;;7.36;72.66;99578.34;4435969;32;33057;-75
2023/12/12 07:52:48;;;;;;;;;;;;;;;7.84;70.80;99581.75;4435615;32;33971;-74
2023/12/12 07:55:16;;;;;;;;;;;;;;;7.38;71.63;99576.75;4421443;32;34950;-74
2023/12/12 07:57:43;;;;;;;;;;;;;;;7.31;72.48;99582.37;4429890;32;33954;-76
2023/12/12 08:00:11;;;;;;;;;;;;;;;7.80;70.91;99584.97;4419923;32;33828;-76
2023/12/12 08:02:38;;;;;;;;;;;;;;;7.77;71.37;99582.25;4426145;32;34257;-76
2023/12/12 08:05:06;;;;;;;;;;;;;;;7.89;71.54;99575.16;4410401;32;33546;-75
2023/12/12 08:07:33;;;;;;;;;;;;;;;7.94;71.35;99585.69;4417980;32;35061;-74
2023/12/12 08:10:01;;;;;;;;;;;;;;;8.21;70.86;99583.66;4434984;32;33651;-75
2023/12/12 08:12:29;;;;;;;;;;;;;;;8.25;70.84;99588.16;4426457;32;34203;-76
2023/12/12 08:14:56;;;;;;;;;;;;;;;8.43;70.69;99576.19;4436029;32;33983;-75
2023/12/12 08:17:24;;;;;;;;;;;;;;;8.60;70.67;99573.56;4425750;32;34472;-75
2023/12/12 08:19:51;;;;;;;;;;;;;;;8.61;70.49;99575.34;4411066;32;31967;-75
2023/12/12 08:22:19;;;;;;;;;;;;;;;8.65;70.45;99572.09;4427262;32;34208;-76
2023/12/12 08:24:50;;;;;;;;;;;;;;;8.72;70.37;99579.31;4428261;32;34144;-75
2023/12/12 08:27:20;;;;;;;;;;;;;;;8.88;70.14;99574.91;4427729;32;34203;-74
2023/12/12 08:29:48;;;;;;;;;;;;;;;8.95;69.99;99589.87;4423861;32;33908;-77
2023/12/12 08:32:16;;;;;;;;;;;;;;;9.10;69.72;99582.87;4419453;32;34866;-76
2023/12/12 08:34:44;;;;;;;;;;;;;;;9.08;69.60;99589.66;4422828;32;34448;-77
2023/12/12 08:37:11;;;;;;;;;;;;;;;9.32;68.68;99584.75;4425130;32;34834;-75
2023/12/12 08:39:39;;;;;;;;;;;;;;;9.31;68.48;99582.97;4425191;32;33583;-76
2023/12/12 08:42:06;;;;;;;;;;;;;;;9.43;68.03;99582.66;4424426;32;33960;-77
2023/12/12 08:44:34;;;;;;;;;;;;;;;9.68;66.80;99584.66;4429870;32;34093;-75
2023/12/12 08:47:01;;;;;;;;;;;;;;;9.87;65.36;99585.44;4423426;32;34172;-75
2023/12/12 08:49:28;;;;;;;;;;;;;;;10.01;64.00;99595.59;4424459;32;32728;-75
2023/12/12 08:51:56;;;;;;;;;;;;;;;9.98;64.13;99590.28;4425164;32;34094;-75
2023/12/12 08:54:24;;;;;;;;;;;;;;;9.87;64.02;99578.59;4426688;32;34237;-76
2023/12/12 08:56:52;;;;;;;;;;;;;;;10.11;62.78;99583.06;4427813;32;34852;-76
2023/12/12 08:59:23;;;;;;;;;;;;;;;10.23;61.31;99586.16;4432882;32;33424;-76
2023/12/12 09:01:51;;;;;;;;;;;;;;;10.33;60.54;99585.75;4422365;32;33316;-75
2023/12/12 09:04:18;;;;;;;;;;;;;;;9.78;62.23;99585.94;4424984;32;35036;-76
2023/12/12 09:06:46;;;;;;;;;;;;;;;9.89;62.09;99579.53;4425038;32;34263;-76
2023/12/12 09:09:14;;;;;;;;;;;;;;;10.04;61.42;99590.56;4428306;32;33346;-76
2023/12/12 09:11:44;;;;;;;;;;;;;;;10.07;61.87;99583.75;4425212;32;32521;-76
2023/12/12 09:14:11;;;;;;;;;;;;;;;10.01;61.85;99580.06;4429885;32;32981;-76
2023/12/12 09:16:39;;;;;;;;;;;;;;;10.40;60.71;99579.16;4424301;32;34477;-76
2023/12/12 09:19:06;;;;;;;;;;;;;;;10.35;61.13;99576.38;4418608;32;33029;-75
2023/12/12 09:21:34;;;;;;;;;;;;;;;10.70;60.48;99579.53;4434048;32;34039;-75
2023/12/12 09:24:02;;;;;;;;;;;;;;;10.74;60.47;99571.06;4423704;32;33492;-77
2023/12/12 09:26:29;;;;;;;;;;;;;;;10.85;60.31;99574.06;4429945;32;35048;-76
2023/12/12 09:28:56;;;;;;;;;;;;;;;10.93;59.87;99582.13;4435039;32;32984;-76
2023/12/12 09:31:27;;;;;;;;;;;;;;;11.27;59.41;99568.78;4431434;32;35041;-75
2023/12/12 09:33:55;;;;;;;;;;;;;;;11.61;58.04;99575.25;4427808;32;34900;-76
2023/12/12 09:36:23;;;;;;;;;;;;;;;11.87;56.39;99578.78;4435382;32;34725;-75
2023/12/12 09:38:50;;;;;;;;;;;;;;;11.85;56.18;99569.19;4430325;32;33621;-76
2023/12/12 09:41:21;;;;;;;;;;;;;;;11.91;55.64;99566.84;4428854;32;34907;-77
2023/12/12 09:43:49;;;;;;;;;;;;;;;11.97;55.44;99570.53;4412858;32;33998;-77
2023/12/12 09:46:17;;;;;;;;;;;;;;;12.08;55.02;99567.44;4423345;32;34941;-76
2023/12/12 09:48:47;;;;;;;;;;;;;;;12.17;54.69;99562.56;4415779;32;34359;-75
2023/12/12 09:51:15;;;;;;;;;;;;;;;12.17;54.13;99552.19;4420338;32;32808;-77
2023/12/12 09:53:46;;;;;;;;;;;;;;;12.12;54.16;99548.53;4426473;32;34198;-76
2023/12/12 09:56:17;;;;;;;;;;;;;;;11.94;55.06;99544.47;4423911;32;34351;-77
2023/12/12 09:58:47;;;;;;;;;;;;;;;11.94;55.08;99564.38;4417783;32;32768;-77
2023/12/12 10:01:15;;;;;;;;;;;;;;;12.03;55.07;99563.78;4437301;32;34195;-77
2023/12/12 10:03:43;;;;;;;;;;;;;;;12.03;55.93;99559.47;4430829;32;34089;-76
2023/12/12 10:06:11;;;;;;;;;;;;;;;12.11;55.30;99551.94;4423807;32;34514;-77
2023/12/12 10:08:38;;;;;;;;;;;;;;;11.92;55.63;99555.66;4424191;32;32927;-76
2023/12/12 10:11:06;;;;;;;;;;;;;;;12.01;55.41;99553.34;4421176;32;34234;-76
2023/12/12 10:13:46;;;;;;;;;;;;;;;12.15;54.81;99559.03;4426012;32;34251;-77
2023/12/12 10:16:14;;;;;;;;;;;;;;;12.32;53.72;99547.50;4426775;32;34345;-76
2023/12/12 10:18:41;;;;;;;;;;;;;;;12.18;54.30;99549.63;4422402;32;33298;-76
2023/12/12 10:21:15;;;;;;;;;;;;;;;12.23;54.32;99541.09;4428321;32;33961;-76
2023/12/12 10:23:47;;;;;;;;;;;;;;;12.35;53.89;99542.41;4429485;32;34209;-76
2023/12/12 10:26:14;;;;;;;;;;;;;;;12.56;53.72;99541.34;4425774;32;34236;-76
2023/12/12 10:28:41;;;;;;;;;;;;;;;12.34;53.82;99529.34;4424490;32;33192;-76
2023/12/12 10:31:09;;;;;;;;;;;;;;;12.46;53.80;99529.78;4430305;32;34624;-76
2023/12/12 10:33:38;;;;;;;;;;;;;;;12.59;56.28;99525.84;4421148;32;33834;-77
2023/12/12 10:36:09;;;;;;;;;;;;;;;12.68;52.81;99530.47;4428724;32;34800;-77
2023/12/12 10:38:38;;;;;;;;;;;;;;;12.67;52.15;99549.47;4413351;32;33632;-76
2023/12/12 10:41:11;;;;;;;;;;;;;;;12.57;52.59;99548.31;4426703;32;34164;-76
2023/12/12 10:43:42;;;;;;;;;;;;;;;12.50;52.75;99552.44;4410678;32;33640;-77
2023/12/12 10:46:10;;;;;;;;;;;;;;;12.73;52.19;99550.56;4423111;32;34363;-76
2023/12/12 10:48:56;;;;;;;;;;;;;;;12.60;52.96;99558.81;4420713;32;33228;-76
2023/12/12 10:51:24;;;;;;;;;;;;;;;12.74;52.51;99554.06;4403817;32;34079;-77
2023/12/12 10:53:51;;;;;;;;;;;;;;;12.83;52.46;99550.87;4410182;32;34686;-77
2023/12/12 10:56:19;;;;;;;;;;;;;;;12.90;52.26;99553.72;4422057;32;34244;-76
2023/12/12 10:58:46;;;;;;;;;;;;;;;13.10;51.98;99554.31;4419928;32;33593;-76
2023/12/12 11:01:14;;;;;;;;;;;;;;;13.08;51.84;99553.41;4411517;32;34803;-77
2023/12/12 11:03:41;;;;;;;;;;;;;;;13.06;52.36;99549.88;4421132;32;34422;-77
2023/12/12 11:06:09;;;;;;;;;;;;;;;13.05;52.17;99555.88;4429343;32;34539;-76
2023/12/12 11:08:37;;;;;;;;;;;;;;;13.30;51.09;99544.53;4431501;32;34186;-77
2023/12/12 11:11:09;;;;;;;;;;;;;;;13.22;50.93;99545.13;4428659;32;34196;-75
2023/12/12 11:13:38;;;;;;;;;;;;;;;13.47;49.60;99542.44;4423253;32;34058;-76
2023/12/12 11:16:06;;;;;;;;;;;;;;;13.48;49.18;99533.81;4432281;32;34895;-77
2023/12/12 11:18:52;;;;;;;;;;;;;;;13.37;49.51;99540.41;4419817;32;34150;-76
2023/12/12 11:21:39;;;;;;;;;;;;;;;13.53;49.39;99540.00;4425921;32;34855;-77
2023/12/12 11:24:06;;;;;;;;;;;;;;;13.59;49.13;99541.03;4431199;32;33132;-76
2023/12/12 11:26:33;;;;;;;;;;;;;;;13.52;48.60;99543.47;4426898;32;34464;-78
2023/12/12 11:29:01;;;;;;;;;;;;;;;13.52;48.86;99540.88;4430974;32;33472;-76
2023/12/12 11:31:28;;;;;;;;;;;;;;;13.55;48.78;99540.94;4423952;32;33641;-76
2023/12/12 11:34:05;;;;;;;;;;;;;;;13.70;48.27;99545.69;4419364;32;34218;-76
2023/12/12 11:36:50;;;;;;;;;;;;;;;13.47;48.90;99542.44;4427389;32;34190;-76
2023/12/12 11:39:30;;;;;;;;;;;;;;;13.76;48.02;99545.88;4423308;32;34656;-75
2023/12/12 11:41:58;;;;;;;;;;;;;;;13.72;52.54;99540.53;4429775;32;33817;-76
2023/12/12 11:44:38;;;;;;;;;;;;;;;13.92;49.51;99536.75;4427679;32;35087;-77
2023/12/12 11:47:08;;;;;;;;;;;;;;;13.98;48.58;99532.56;4434227;32;34464;-76
2023/12/12 11:49:36;;;;;;;;;;;;;;;14.15;47.83;99534.75;4428916;32;33189;-76
2023/12/12 11:52:03;;;;;;;;;;;;;;;14.33;46.71;99523.94;4430040;32;34304;-78
2023/12/12 11:54:31;;;;;;;;;;;;;;;14.24;46.87;99528.91;4434873;32;33914;-77
2023/12/12 11:56:59;;;;;;;;;;;;;;;14.65;45.29;99523.88;4420562;32;35228;-75
2023/12/12 11:59:27;;;;;;;;;;;;;;;14.39;45.62;99527.53;4425109;32;33644;-77
2023/12/12 12:01:54;;;;;;;;;;;;;;;14.49;45.43;99526.94;4423322;32;33815;-77
2023/12/12 12:04:22;;;;;;;;;;;;;;;14.19;46.67;99529.63;4427340;32;34697;-76
2023/12/12 12:06:52;;;;;;;;;;;;;;;14.25;47.33;99525.44;4426967;32;33998;-77
2023/12/12 12:09:20;;;;;;;;;;;;;;;14.51;45.89;99512.22;4425971;32;33552;-78
2023/12/12 12:11:48;;;;;;;;;;;;;;;14.78;45.08;99511.13;4410910;32;33894;-77
2023/12/12 12:14:19;;;;;;;;;;;;;;;14.89;44.42;99514.84;4418765;32;33957;-75
2023/12/12 12:16:48;;;;;;;;;;;;;;;14.94;43.64;99508.03;4423658;32;34378;-77
2023/12/12 12:19:31;;;;;;;;;;;;;;;14.57;45.31;99501.09;4409204;32;32709;-77
2023/12/12 12:22:02;;;;;;;;;;;;;;;14.73;45.52;99497.97;4428445;32;33703;-77
2023/12/12 12:24:30;;;;;;;;;;;;;;;14.94;44.63;99493.25;4428406;32;34247;-77
2023/12/12 12:26:57;;;;;;;;;;;;;;;15.03;43.73;99492.59;4414237;32;34601;-77
2023/12/12 12:29:27;;;;;;;;;;;;;;;15.06;43.47;99497.84;4428460;32;34079;-78
2023/12/12 12:31:54;;;;;;;;;;;;;;;15.35;69.43;99500.19;4425330;32;34939;-77
2023/12/12 12:34:22;;;;;;;;;;;;;;;15.69;62.61;99500.88;4429114;32;34331;-76
2023/12/12 12:36:51;;;;;;;;;;;;;;;15.61;52.79;99498.13;4430164;32;35090;-77
2023/12/12 12:39:21;;;;;;;;;;;;;;;15.76;48.90;99497.59;4422541;32;33618;-77
2023/12/12 12:41:52;;;;;;;;;;;;;;;15.87;46.47;99485.56;4426397;32;33991;-77
2023/12/12 12:44:20;;;;;;;;;;;;;;;16.10;44.20;99487.72;4427110;32;34211;-76
2023/12/12 12:46:48;;;;;;;;;;;;;;;16.28;42.30;99482.84;4433576;32;33880;-77
2023/12/12 12:49:16;;;;;;;;;;;;;;;16.38;41.95;99485.56;4425662;32;33424;-77
2023/12/12 12:51:47;;;;;;;;;;;;;;;16.11;42.71;99484.28;4430457;32;34089;-76
2023/12/12 12:54:15;;;;;;;;;;;;;;;16.08;42.59;99484.22;4422781;32;35044;-76
2023/12/12 12:56:44;;;;;;;;;;;;;;;15.91;42.15;99481.28;4426492;32;34188;-76